Time;durP1;ratioP1;P1;durP2;ratioP2;P2;SDS_P1;SDS_P2;PMS_P1;PMS_P2;Temp;Humidity;BMP_temperature;BMP_pressure;BME280_temperature;BME280_humidity;BME280_pressure;Samples;Min_cycle;Max_cycle;Signal;HPM_P1;HPM_P2
2021/12/23 00:02:00;;;;;;;56.10;25.42;;;-3.30;96.60;;;;;;5039045;28;20636;-78
2021/12/23 00:04:26;;;;;;;54.15;25.08;;;-3.40;96.50;;;;;;5038599;28;20025;-78
2021/12/23 00:06:54;;;;;;;52.40;25.20;;;-3.10;96.70;;;;;;5037073;28;20025;-78
2021/12/23 00:09:23;;;;;;;60.92;26.85;;;-3.40;96.70;;;;;;5036818;28;20040;-79
2021/12/23 00:11:49;;;;;;;56.10;26.83;;;-3.40;96.80;;;;;;5038598;28;20260;-78
2021/12/23 00:14:14;;;;;;;58.78;28.20;;;-3.30;96.80;;;;;;5038214;28;20100;-78
2021/12/23 00:19:20;;;;;;;64.75;29.75;;;-3.40;96.80;;;;;;5037962;28;20367;-78
2021/12/23 00:24:34;;;;;;;149.38;49.63;;;-3.40;96.60;;;;;;5038656;28;20123;-78
2021/12/23 00:27:00;;;;;;;224.02;67.22;;;-2.80;96.80;;;;;;5038543;28;20060;-78
2021/12/23 00:29:26;;;;;;;278.95;81.50;;;-3.40;96.60;;;;;;5038300;28;20048;-78
2021/12/23 00:31:52;;;;;;;148.30;48.40;;;-3.50;96.50;;;;;;5038244;28;20229;-78
2021/12/23 00:34:20;;;;;;;106.80;39.65;;;-2.60;97.20;;;;;;5038757;28;20519;-78
2021/12/23 00:36:51;;;;;;;93.20;36.88;;;-3.40;96.80;;;;;;5038288;28;20296;-78
2021/12/23 00:39:19;;;;;;;99.47;39.00;;;-3.70;96.70;;;;;;5038425;28;20519;-78
2021/12/23 00:41:45;;;;;;;127.82;45.63;;;-2.70;96.90;;;;;;5037614;28;20522;-79
2021/12/23 00:44:13;;;;;;;168.70;53.95;;;-3.60;96.70;;;;;;5037947;28;20021;-79
2021/12/23 00:46:39;;;;;;;115.90;43.40;;;-3.70;96.60;;;;;;5036754;28;20238;-78
2021/12/23 00:49:08;;;;;;;123.57;43.92;;;-3.70;96.70;;;;;;5036319;28;20190;-78
2021/12/23 00:51:34;;;;;;;83.32;34.47;;;-2.00;97.10;;;;;;5039292;28;20052;-78
2021/12/23 00:54:04;;;;;;;83.18;32.72;;;-3.60;96.70;;;;;;5043658;28;20037;-78
2021/12/23 00:56:39;;;;;;;63.15;29.73;;;-3.70;96.60;;;;;;5050525;28;20335;-78
2021/12/23 00:59:12;;;;;;;78.38;32.72;;;-3.70;96.70;;;;;;5049588;28;20037;-77
2021/12/23 01:01:37;;;;;;;96.70;38.40;;;-2.70;97.00;;;;;;5048543;28;20370;-78
2021/12/23 01:04:05;;;;;;;100.88;39.42;;;-2.80;97.00;;;;;;5046307;28;20025;-79
2021/12/23 01:06:31;;;;;;;309.58;93.72;;;-3.70;96.80;;;;;;5040035;28;20025;-78
2021/12/23 01:08:56;;;;;;;387.27;110.43;;;-3.70;96.90;;;;;;5039041;28;20078;-79
2021/12/23 01:11:24;;;;;;;181.52;60.58;;;-3.60;97.10;;;;;;5039136;28;20092;-78
2021/12/23 01:16:50;;;;;;;140.32;48.90;;;-3.90;97.00;;;;;;5014934;28;20029;-79
2021/12/23 01:19:17;;;;;;;244.38;74.28;;;-4.00;97.00;;;;;;5015270;28;20238;-79
2021/12/23 01:21:43;;;;;;;196.07;58.80;;;-3.80;97.00;;;;;;4997738;28;20041;-78
2021/12/23 01:24:10;;;;;;;308.33;89.25;;;-3.40;97.20;;;;;;5015022;28;20025;-78
2021/12/23 01:26:38;;;;;;;326.60;92.85;;;-3.40;97.30;;;;;;4998408;28;20554;-77
2021/12/23 01:29:06;;;;;;;212.05;69.22;;;-3.80;97.30;;;;;;5014829;28;20033;-78
2021/12/23 01:31:33;;;;;;;271.58;78.88;;;-3.30;97.50;;;;;;5002182;28;20045;-79
2021/12/23 01:34:00;;;;;;;607.60;175.00;;;-5.40;97.00;;;;;;5018308;28;20038;-78
2021/12/23 01:36:26;;;;;;;118.60;46.92;;;-4.00;97.40;;;;;;5018230;28;20492;-78
2021/12/23 01:38:52;;;;;;;207.75;67.05;;;-4.00;97.20;;;;;;5018477;28;20064;-78
2021/12/23 01:41:18;;;;;;;533.30;154.27;;;-4.10;97.20;;;;;;5001897;28;20085;-78
2021/12/23 01:43:44;;;;;;;355.90;105.53;;;-4.00;97.30;;;;;;5018841;28;20030;-78
2021/12/23 01:46:10;;;;;;;160.55;54.10;;;-4.10;97.10;;;;;;5001888;28;20040;-78
2021/12/23 01:48:47;;;;;;;273.13;88.18;;;-2.80;97.40;;;;;;5017938;28;20266;-78
2021/12/23 01:51:13;;;;;;;362.67;114.15;;;-4.10;97.10;;;;;;5018598;28;20029;-78
2021/12/23 01:53:40;;;;;;;155.65;56.47;;;-4.20;97.80;;;;;;5029065;28;20045;-78
2021/12/23 01:56:06;;;;;;;194.02;63.95;;;-4.20;96.80;;;;;;5041628;28;20580;-78
2021/12/23 01:58:35;;;;;;;211.10;72.05;;;-4.10;97.10;;;;;;5041752;28;20182;-78
2021/12/23 02:01:03;;;;;;;164.10;60.60;;;-4.30;97.20;;;;;;5046337;28;20017;-78
2021/12/23 02:03:32;;;;;;;193.98;74.07;;;-4.20;97.20;;;;;;5046867;28;20029;-79
2021/12/23 02:05:58;;;;;;;151.98;57.42;;;-2.90;97.60;;;;;;5050160;28;20518;-78
2021/12/23 02:08:24;;;;;;;161.43;61.88;;;-4.40;97.30;;;;;;5048744;28;20296;-78
2021/12/23 02:10:52;;;;;;;181.18;67.78;;;-4.40;97.30;;;;;;5040133;28;20060;-77
2021/12/23 02:13:17;;;;;;;98.35;41.03;;;-4.30;97.60;;;;;;5041168;28;20545;-77
2021/12/23 02:15:43;;;;;;;91.10;39.67;;;-4.40;97.60;;;;;;5041100;28;20049;-78
2021/12/23 02:18:09;;;;;;;72.50;31.98;;;-4.10;97.50;;;;;;5041441;28;20033;-78
2021/12/23 02:20:35;;;;;;;66.82;31.25;;;-3.60;97.80;;;;;;5041115;28;20025;-78
2021/12/23 02:23:02;;;;;;;83.13;35.58;;;-4.50;97.50;;;;;;5040911;28;20021;-78
2021/12/23 02:25:33;;;;;;;74.13;31.95;;;-2.70;97.70;;;;;;5041116;28;20100;-78
2021/12/23 02:28:04;;;;;;;80.03;34.47;;;-3.50;97.50;;;;;;5038520;28;20033;-78
2021/12/23 02:30:31;;;;;;;73.30;34.47;;;-3.60;97.50;;;;;;5040482;28;20534;-78
2021/12/23 02:32:57;;;;;;;89.20;39.13;;;-4.50;97.40;;;;;;5040311;28;20100;-78
2021/12/23 02:35:24;;;;;;;104.97;42.88;;;-4.40;97.50;;;;;;5040493;28;20025;-77
2021/12/23 02:37:50;;;;;;;147.20;55.80;;;-3.60;97.80;;;;;;5040141;28;20546;-78
2021/12/23 02:40:33;;;;;;;93.93;40.33;;;-2.90;97.90;;;;;;5038477;28;20557;-78
2021/12/23 02:43:13;;;;;;;72.00;33.10;;;-4.60;97.60;;;;;;5040059;28;20033;-78
2021/12/23 02:45:39;;;;;;;76.30;34.17;;;-4.50;97.50;;;;;;5040368;28;20028;-78
2021/12/23 02:48:21;;;;;;;73.65;31.58;;;-4.50;97.50;;;;;;5040112;28;20365;-78
2021/12/23 02:51:01;;;;;;;85.35;36.63;;;-3.80;97.70;;;;;;5039745;28;20071;-78
2021/12/23 02:53:27;;;;;;;69.53;31.13;;;-4.40;98.20;;;;;;5037333;28;20048;-77
2021/12/23 02:55:55;;;;;;;66.10;29.63;;;-4.40;97.20;;;;;;5039754;28;20120;-78
2021/12/23 02:58:21;;;;;;;70.55;31.10;;;-3.30;97.30;;;;;;5039945;28;20044;-77
2021/12/23 03:00:51;;;;;;;69.68;30.63;;;-4.40;97.00;;;;;;5039738;28;20032;-78
2021/12/23 03:03:18;;;;;;;82.38;34.75;;;-2.80;97.20;;;;;;5039679;28;20479;-78
2021/12/23 03:05:48;;;;;;;65.07;29.75;;;-3.60;97.00;;;;;;5039887;28;20017;-78
2021/12/23 03:08:14;;;;;;;63.45;28.65;;;-4.30;96.30;;;;;;5037854;28;20336;-77
2021/12/23 03:10:40;;;;;;;64.93;29.42;;;-1.50;96.90;;;;;;5039422;28;20025;-77
2021/12/23 03:13:06;;;;;;;65.55;28.27;;;-4.40;96.10;;;;;;5038172;28;20048;-78
2021/12/23 03:15:32;;;;;;;64.18;27.63;;;-4.50;96.40;;;;;;5037947;28;20033;-78
2021/12/23 03:17:59;;;;;;;64.78;28.73;;;-3.80;96.30;;;;;;5039486;28;20448;-78
2021/12/23 03:23:11;;;;;;;59.22;28.02;;;-2.80;96.60;;;;;;5037529;28;20091;-78
2021/12/23 03:25:37;;;;;;;64.70;26.42;;;-2.70;97.20;;;;;;5037685;28;20037;-78
2021/12/23 03:28:03;;;;;;;58.40;26.77;;;-4.60;96.10;;;;;;5039127;28;20126;-78
2021/12/23 03:30:32;;;;;;;58.63;26.88;;;-6.10;95.60;;;;;;5039180;28;20033;-78
2021/12/23 03:32:58;;;;;;;57.40;27.17;;;-4.70;95.90;;;;;;5039399;28;20455;-79
2021/12/23 03:35:24;;;;;;;61.67;27.30;;;-3.50;96.20;;;;;;5039451;28;20104;-78
2021/12/23 03:37:53;;;;;;;58.38;26.45;;;-4.70;95.80;;;;;;5037765;28;20045;-78
2021/12/23 03:40:20;;;;;;;57.90;26.70;;;-2.80;96.30;;;;;;5039321;28;20036;-78
2021/12/23 03:42:46;;;;;;;58.00;26.15;;;-3.50;96.40;;;;;;5044171;28;20523;-78
2021/12/23 03:45:12;;;;;;;60.17;26.95;;;-4.00;96.10;;;;;;5057129;28;20025;-78
2021/12/23 03:47:39;;;;;;;58.88;25.52;;;-4.70;95.80;;;;;;5057163;28;20048;-78
2021/12/23 03:50:06;;;;;;;56.83;23.83;;;-4.80;95.90;;;;;;5056587;28;20017;-79
2021/12/23 03:52:39;;;;;;;53.53;24.92;;;-4.90;95.70;;;;;;5039361;28;20021;-77
2021/12/23 03:55:10;;;;;;;51.95;24.70;;;-2.40;96.30;;;;;;5039608;28;20067;-78
2021/12/23 03:57:36;;;;;;;57.03;24.42;;;-4.90;96.30;;;;;;5038872;28;20051;-78
2021/12/23 04:00:05;;;;;;;54.97;23.88;;;-4.00;96.20;;;;;;5038868;28;20025;-79
2021/12/23 04:02:31;;;;;;;58.47;25.38;;;-5.10;96.10;;;;;;5038774;28;20017;-79
2021/12/23 04:04:57;;;;;;;53.97;24.05;;;-4.10;96.60;;;;;;5038545;28;20502;-78
2021/12/23 04:07:23;;;;;;;53.80;23.85;;;-5.20;96.20;;;;;;5038483;28;20110;-78
2021/12/23 04:09:49;;;;;;;50.85;24.20;;;-4.40;96.60;;;;;;5038540;28;20071;-78
2021/12/23 04:12:17;;;;;;;60.80;24.98;;;-3.70;96.60;;;;;;5038520;28;20017;-78
2021/12/23 04:14:43;;;;;;;51.10;24.80;;;-3.80;96.50;;;;;;5038311;28;20522;-78
2021/12/23 04:17:09;;;;;;;56.97;25.13;;;-5.10;95.90;;;;;;5038307;28;20029;-78
2021/12/23 04:19:38;;;;;;;57.85;25.20;;;-4.80;96.10;;;;;;5038005;28;20032;-78
2021/12/23 04:22:09;;;;;;;56.03;25.00;;;-5.20;95.80;;;;;;5037137;28;20398;-78
2021/12/23 04:24:37;;;;;;;55.15;24.70;;;-5.20;96.20;;;;;;5038001;28;20108;-78
2021/12/23 04:27:06;;;;;;;49.92;24.33;;;-7.60;95.20;;;;;;5038332;28;20040;-79
2021/12/23 04:29:32;;;;;;;60.78;25.52;;;-5.30;95.80;;;;;;5038202;28;20442;-79
2021/12/23 04:31:59;;;;;;;51.35;22.20;;;-5.30;96.00;;;;;;5038113;28;20571;-78
2021/12/23 04:34:26;;;;;;;54.33;23.02;;;-5.10;96.10;;;;;;5038227;28;20103;-78
2021/12/23 04:36:52;;;;;;;44.95;21.95;;;-5.00;95.90;;;;;;5037763;28;20100;-78
2021/12/23 04:39:18;;;;;;;50.10;21.95;;;-4.20;96.30;;;;;;5037890;28;20574;-78
2021/12/23 04:41:44;;;;;;;46.72;20.98;;;-2.50;96.70;;;;;;5038203;28;20032;-78
2021/12/23 04:44:10;;;;;;;49.67;20.58;;;-5.30;95.70;;;;;;5038393;28;20021;-77
2021/12/23 04:46:35;;;;;;;43.03;21.00;;;-2.90;96.20;;;;;;5037139;28;20079;-78
2021/12/23 04:49:02;;;;;;;41.95;20.38;;;-4.10;96.00;;;;;;5038143;28;20052;-77
2021/12/23 04:51:34;;;;;;;46.40;20.60;;;-4.60;95.90;;;;;;5037958;28;20056;-78
2021/12/23 04:53:59;;;;;;;47.10;21.33;;;-5.40;95.40;;;;;;5037859;28;20507;-78
2021/12/23 04:56:25;;;;;;;45.50;20.60;;;-5.20;95.60;;;;;;5037721;28;20205;-78
2021/12/23 04:58:51;;;;;;;42.85;20.17;;;-2.20;96.60;;;;;;5037935;28;20036;-78
2021/12/23 05:01:20;;;;;;;54.25;19.67;;;-5.30;95.70;;;;;;5037762;28;20515;-78
2021/12/23 05:03:47;;;;;;;43.97;20.40;;;-5.30;95.40;;;;;;5036622;28;20139;-78
2021/12/23 05:06:17;;;;;;;42.47;20.42;;;-5.30;95.50;;;;;;5039669;28;20044;-78
2021/12/23 05:08:43;;;;;;;47.65;21.55;;;-5.30;95.50;;;;;;5040431;28;20029;-78
2021/12/23 05:11:09;;;;;;;44.80;20.10;;;-5.30;95.30;;;;;;5041607;28;20033;-78
2021/12/23 05:13:35;;;;;;;45.15;20.10;;;-6.80;95.00;;;;;;5041905;28;20516;-78
2021/12/23 05:16:04;;;;;;;44.55;20.52;;;-3.30;96.10;;;;;;5041818;28;20078;-78
2021/12/23 05:18:30;;;;;;;46.60;20.58;;;-4.20;95.90;;;;;;5041656;28;20033;-78
2021/12/23 05:21:02;;;;;;;42.03;19.88;;;-5.30;95.80;;;;;;5041568;28;20389;-77
2021/12/23 05:23:30;;;;;;;45.15;18.55;;;-5.40;95.70;;;;;;5039966;28;20120;-78
2021/12/23 05:25:56;;;;;;;47.13;19.60;;;-2.80;96.60;;;;;;5041265;28;20502;-78
2021/12/23 05:28:22;;;;;;;45.67;18.63;;;-3.20;95.40;;;;;;5041959;28;20221;-78
2021/12/23 05:30:47;;;;;;;39.80;17.67;;;-3.70;95.40;;;;;;5041419;28;20040;-79
2021/12/23 05:33:13;;;;;;;36.90;17.27;;;-5.30;94.90;;;;;;5041776;28;20025;-77
2021/12/23 05:35:39;;;;;;;40.03;18.45;;;-5.30;95.20;;;;;;5041622;28;20021;-78
2021/12/23 05:38:04;;;;;;;40.45;19.77;;;-5.30;95.30;;;;;;5041258;28;20648;-78
2021/12/23 05:40:32;;;;;;;39.20;17.95;;;-5.30;95.20;;;;;;5039845;28;20392;-78
2021/12/23 05:42:58;;;;;;;42.72;18.42;;;-5.30;94.90;;;;;;5041479;28;20044;-78
2021/12/23 05:45:25;;;;;;;39.72;18.00;;;-2.60;95.70;;;;;;5041627;28;20021;-77
2021/12/23 05:47:51;;;;;;;39.10;17.17;;;-5.20;94.70;;;;;;5041037;28;20233;-77
2021/12/23 05:50:21;;;;;;;34.45;16.13;;;-5.20;94.60;;;;;;5040948;28;20017;-77
2021/12/23 05:53:02;;;;;;;36.53;16.77;;;-5.20;94.40;;;;;;5041216;28;20029;-78
2021/12/23 05:55:28;;;;;;;41.33;18.73;;;-5.40;94.50;;;;;;5041925;28;20040;-78
2021/12/23 05:57:54;;;;;;;44.15;19.27;;;-5.00;95.20;;;;;;5041973;28;20036;-78
2021/12/23 06:00:29;;;;;;;39.40;19.30;;;-3.40;95.00;;;;;;5042166;28;20221;-78
2021/12/23 06:02:55;;;;;;;40.63;18.63;;;-4.50;94.40;;;;;;5041456;28;20518;-79
2021/12/23 06:05:22;;;;;;;44.03;18.10;;;-4.80;94.10;;;;;;5040538;28;20040;-79
2021/12/23 06:07:48;;;;;;;59.40;25.15;;;-5.20;93.90;;;;;;5041520;28;20575;-76
2021/12/23 06:10:15;;;;;;;70.65;32.70;;;-5.00;94.30;;;;;;5041112;28;20025;-78
2021/12/23 06:12:41;;;;;;;56.72;23.65;;;-5.30;94.30;;;;;;5041793;28;20033;-78
2021/12/23 06:15:07;;;;;;;55.17;24.38;;;-4.50;94.40;;;;;;5041771;28;20027;-78
2021/12/23 06:17:34;;;;;;;73.57;29.83;;;-5.40;94.20;;;;;;5041200;28;20488;-78
2021/12/23 06:20:00;;;;;;;95.30;37.15;;;-4.70;94.40;;;;;;5041225;28;20029;-78
2021/12/23 06:22:26;;;;;;;82.72;31.20;;;-5.40;94.10;;;;;;5041486;28;20691;-79
2021/12/23 06:24:52;;;;;;;53.25;24.75;;;-5.50;94.10;;;;;;5041736;28;20310;-78
2021/12/23 06:27:19;;;;;;;52.88;23.05;;;-5.60;94.60;;;;;;5042676;28;20021;-77
2021/12/23 06:29:45;;;;;;;44.35;20.42;;;-5.40;94.40;;;;;;5058937;28;20024;-78
2021/12/23 06:32:11;;;;;;;47.95;18.92;;;-5.50;94.30;;;;;;5052055;28;20246;-78
2021/12/23 06:34:38;;;;;;;45.47;19.75;;;-4.60;94.60;;;;;;5051426;28;20025;-78
2021/12/23 06:37:04;;;;;;;36.45;16.48;;;-4.40;94.60;;;;;;5045743;28;20226;-78
2021/12/23 06:39:32;;;;;;;45.47;21.45;;;-3.90;95.00;;;;;;5041866;28;20055;-77
2021/12/23 06:41:58;;;;;;;44.25;20.05;;;-5.70;94.60;;;;;;5041116;28;20041;-77
2021/12/23 06:44:23;;;;;;;43.72;18.67;;;-3.30;95.40;;;;;;5041427;28;20142;-78
2021/12/23 06:46:49;;;;;;;45.72;19.17;;;-5.70;94.70;;;;;;5040704;28;20413;-78
2021/12/23 06:49:16;;;;;;;46.25;18.13;;;-5.20;94.80;;;;;;5040893;28;20221;-79
2021/12/23 06:51:41;;;;;;;36.80;15.50;;;-4.20;95.30;;;;;;5040732;28;20218;-78
2021/12/23 06:54:09;;;;;;;38.50;18.38;;;-5.10;95.10;;;;;;5040496;28;20064;-78
2021/12/23 06:56:37;;;;;;;46.20;18.30;;;-4.40;95.10;;;;;;5040515;28;20279;-78
2021/12/23 06:59:02;;;;;;;35.90;17.10;;;-4.70;95.40;;;;;;5039645;28;20056;-78
2021/12/23 07:01:28;;;;;;;36.35;16.42;;;-4.70;95.10;;;;;;5040493;28;20503;-77
2021/12/23 07:06:46;;;;;;;45.40;20.33;;;-3.60;95.10;;;;;;5040323;28;20013;-78
2021/12/23 07:09:11;;;;;;;49.83;20.20;;;-4.90;94.60;;;;;;5038615;28;20523;-78
2021/12/23 07:11:38;;;;;;;37.58;17.60;;;-5.10;94.50;;;;;;5039782;28;20104;-79
2021/12/23 07:14:03;;;;;;;47.63;19.52;;;-4.50;94.40;;;;;;5040008;28;20013;-77
2021/12/23 07:16:29;;;;;;;38.83;17.85;;;-3.10;94.80;;;;;;5039618;28;20534;-77
2021/12/23 07:18:55;;;;;;;40.53;18.30;;;-4.30;94.20;;;;;;5038266;28;20232;-78
2021/12/23 07:21:21;;;;;;;49.97;19.98;;;-3.20;94.50;;;;;;5040139;28;20148;-80
2021/12/23 07:23:47;;;;;;;41.97;18.00;;;-4.90;94.00;;;;;;5040587;28;20027;-79
2021/12/23 07:26:14;;;;;;;54.60;20.75;;;-4.20;94.10;;;;;;5039750;28;20107;-78
2021/12/23 07:28:40;;;;;;;45.95;17.92;;;-4.90;94.10;;;;;;5039002;28;20146;-78
2021/12/23 07:31:05;;;;;;;34.08;15.18;;;-4.10;94.40;;;;;;5040292;28;20021;-78
2021/12/23 07:33:31;;;;;;;48.40;20.35;;;-3.10;94.80;;;;;;5040162;28;20051;-78
2021/12/23 07:35:57;;;;;;;53.70;22.88;;;-4.70;94.70;;;;;;5040155;28;20507;-77
2021/12/23 07:38:23;;;;;;;58.22;25.35;;;-4.70;94.60;;;;;;5040247;28;20060;-77
2021/12/23 07:40:49;;;;;;;70.18;30.10;;;-4.20;95.00;;;;;;5039923;28;20480;-79
2021/12/23 07:46:03;;;;;;;98.40;43.28;;;-4.20;94.90;;;;;;5040142;28;20230;-77
2021/12/23 07:48:30;;;;;;;85.53;37.05;;;-3.80;94.50;;;;;;5039622;28;20029;-78
2021/12/23 07:50:57;;;;;;;83.28;38.25;;;-3.60;94.30;;;;;;5038267;28;20102;-78
2021/12/23 07:53:22;;;;;;;107.53;43.38;;;-3.40;93.60;;;;;;5038824;28;20052;-78
2021/12/23 07:55:48;;;;;;;88.05;37.22;;;-3.20;93.20;;;;;;5038625;28;20476;-78
2021/12/23 07:58:14;;;;;;;105.35;43.78;;;-3.00;92.20;;;;;;5040215;28;20391;-78
2021/12/23 08:00:40;;;;;;;97.20;41.63;;;-2.50;92.20;;;;;;5039842;28;20067;-79
2021/12/23 08:03:06;;;;;;;91.05;39.42;;;-2.70;92.00;;;;;;5039945;28;20111;-78
2021/12/23 08:05:33;;;;;;;91.88;42.95;;;-2.50;91.70;;;;;;5038633;28;20446;-78
2021/12/23 08:07:59;;;;;;;86.82;38.83;;;-2.40;92.00;;;;;;5041778;28;20033;-79
2021/12/23 08:10:26;;;;;;;75.68;38.10;;;-1.80;91.70;;;;;;5042729;28;20024;-78
2021/12/23 08:12:52;;;;;;;89.13;38.28;;;-2.20;91.60;;;;;;5042281;28;20025;-79
2021/12/23 08:15:18;;;;;;;73.05;35.05;;;-0.80;91.20;;;;;;5043883;28;20546;-79
2021/12/23 08:17:43;;;;;;;72.57;33.88;;;-2.10;90.70;;;;;;5040384;28;20246;-79
2021/12/23 08:20:11;;;;;;;67.90;32.13;;;-2.00;90.30;;;;;;5041039;28;20400;-79
2021/12/23 08:22:37;;;;;;;75.05;33.08;;;-1.80;90.30;;;;;;5039762;28;20032;-78
2021/12/23 08:25:04;;;;;;;63.63;29.52;;;-0.70;90.20;;;;;;5039123;28;20032;-78
2021/12/23 08:27:31;;;;;;;56.47;26.80;;;-1.70;89.30;;;;;;5038025;28;20017;-78
2021/12/23 08:29:57;;;;;;;57.03;27.17;;;-1.60;89.30;;;;;;5042585;28;20091;-78
2021/12/23 08:32:23;;;;;;;68.35;31.02;;;-1.60;88.70;;;;;;5038626;28;20060;-78
2021/12/23 08:34:49;;;;;;;77.25;34.33;;;-1.50;89.10;;;;;;5041269;28;20587;-77
2021/12/23 08:37:16;;;;;;;66.00;31.42;;;-1.50;89.40;;;;;;5039330;28;20028;-78
2021/12/23 08:39:42;;;;;;;71.28;31.85;;;-1.00;89.20;;;;;;5039382;28;20033;-79
2021/12/23 08:42:09;;;;;;;71.60;33.03;;;-1.30;88.70;;;;;;5039775;28;20021;-77
2021/12/23 08:44:35;;;;;;;95.68;42.78;;;-1.10;89.80;;;;;;5041050;28;20032;-80
2021/12/23 08:47:02;;;;;;;112.70;48.35;;;-1.10;90.00;;;;;;5039903;28;20045;-81
2021/12/23 08:49:28;;;;;;;105.18;46.45;;;-1.00;89.30;;;;;;5040015;28;20063;-79
2021/12/23 08:51:54;;;;;;;91.70;43.22;;;-0.90;89.30;;;;;;5040478;28;20290;-80
2021/12/23 08:54:20;;;;;;;93.30;44.55;;;-0.80;89.00;;;;;;5042017;28;20049;-79
2021/12/23 08:56:46;;;;;;;98.93;44.22;;;-0.80;88.70;;;;;;5041016;28;20013;-78
2021/12/23 08:59:12;;;;;;;88.18;41.38;;;-0.60;87.80;;;;;;5036851;28;20095;-79
2021/12/23 09:01:40;;;;;;;87.85;41.83;;;-0.60;87.00;;;;;;5038389;28;20021;-79
2021/12/23 09:04:06;;;;;;;94.35;43.55;;;-0.50;87.50;;;;;;5037110;28;20025;-78
2021/12/23 09:06:32;;;;;;;81.18;40.35;;;-0.30;87.30;;;;;;5038695;28;20021;-78
2021/12/23 09:08:58;;;;;;;82.85;42.30;;;-0.10;86.40;;;;;;5038716;28;20680;-79
2021/12/23 09:11:25;;;;;;;85.22;40.85;;;0.00;86.10;;;;;;5048497;28;20029;-79
2021/12/23 09:13:51;;;;;;;84.10;39.53;;;0.00;85.40;;;;;;5054960;28;20671;-79
2021/12/23 09:16:17;;;;;;;95.80;44.83;;;0.00;85.40;;;;;;5056348;28;20017;-79
2021/12/23 09:18:42;;;;;;;95.85;44.83;;;0.20;85.00;;;;;;5051539;28;20037;-78
2021/12/23 09:21:12;;;;;;;93.63;46.20;;;0.10;85.90;;;;;;5041876;28;20096;-80
2021/12/23 09:23:38;;;;;;;100.95;48.08;;;0.30;85.20;;;;;;5039347;28;20108;-77
2021/12/23 09:26:10;;;;;;;102.43;49.28;;;0.40;84.70;;;;;;5039519;28;20021;-78
2021/12/23 09:34:22;;;;;;;107.97;49.78;;;0.70;82.80;;;;;;4976971;28;20061;-77
2021/12/23 09:36:48;;;;;;;92.30;47.10;;;0.70;82.70;;;;;;4960348;28;20521;-78
2021/12/23 09:39:14;;;;;;;97.32;45.88;;;0.80;82.80;;;;;;4976006;28;20045;-78
2021/12/23 09:41:41;;;;;;;96.45;46.95;;;0.90;81.80;;;;;;4976582;28;20069;-79
2021/12/23 09:44:09;;;;;;;106.43;50.08;;;1.00;82.10;;;;;;4976742;28;20026;-79
2021/12/23 09:46:36;;;;;;;103.38;50.80;;;0.90;82.90;;;;;;4961111;28;20085;-79
2021/12/23 09:49:04;;;;;;;96.20;48.65;;;1.00;82.90;;;;;;4977434;28;20038;-78
2021/12/23 09:51:32;;;;;;;95.93;49.90;;;1.10;83.40;;;;;;4978596;28;20628;-79
2021/12/23 09:54:01;;;;;;;101.28;48.70;;;1.30;83.60;;;;;;4979269;28;20299;-79
2021/12/23 09:56:28;;;;;;;93.90;50.35;;;1.40;82.50;;;;;;4978668;28;20035;-79
2021/12/23 09:58:57;;;;;;;102.90;51.10;;;1.60;83.60;;;;;;4978731;28;20042;-79
2021/12/23 10:01:24;;;;;;;114.45;53.42;;;1.70;82.10;;;;;;4979844;28;20031;-78
2021/12/23 10:03:50;;;;;;;105.57;50.85;;;1.80;80.80;;;;;;4979910;28;20030;-79
2021/12/23 10:06:16;;;;;;;101.50;52.15;;;1.90;80.40;;;;;;4986201;28;20030;-79
2021/12/23 10:08:43;;;;;;;107.28;55.28;;;2.10;79.10;;;;;;5042648;28;20017;-79
2021/12/23 10:30:38;;;;;;;109.60;52.47;;;2.10;80.20;;;;;;5046051;28;20036;-80
2021/12/23 10:38:37;;;;;;;115.90;54.75;;;2.50;78.10;;;;;;5049969;28;20041;-79
2021/12/23 10:41:07;;;;;;;102.35;54.60;;;2.60;77.00;;;;;;5047363;28;20091;-79
2021/12/23 10:44:04;;;;;;;106.68;52.60;;;2.60;77.70;;;;;;5046870;28;20021;-78
2021/12/23 10:46:34;;;;;;;120.70;61.00;;;2.90;77.80;;;;;;5051914;28;20596;-80
2021/12/23 10:52:05;;;;;;;126.25;61.65;;;2.90;77.20;;;;;;5045317;28;20025;-78
2021/12/23 11:00:19;;;;;;;123.78;61.95;;;3.20;77.50;;;;;;5042015;28;20040;-78
2021/12/23 11:03:11;;;;;;;122.78;62.30;;;3.30;76.60;;;;;;5041988;28;20025;-79
2021/12/23 11:05:52;;;;;;;117.97;60.70;;;3.40;75.00;;;;;;5042828;28;20043;-78
2021/12/23 11:08:29;;;;;;;119.68;60.88;;;3.70;74.00;;;;;;5042509;28;20117;-78
2021/12/23 11:30:47;;;;;;;133.57;64.32;;;5.40;66.90;;;;;;5018501;28;20017;-79
2021/12/23 11:38:30;;;;;;;107.18;56.47;;;5.90;65.60;;;;;;5018547;28;20098;-79
2021/12/23 11:41:05;;;;;;;102.80;54.90;;;5.50;66.00;;;;;;5002133;28;20184;-79
2021/12/23 11:46:25;;;;;;;110.82;58.63;;;5.80;63.90;;;;;;5020130;28;20751;-79
2021/12/23 11:48:54;;;;;;;116.82;60.65;;;5.90;63.70;;;;;;5022468;28;20032;-79
2021/12/23 11:51:35;;;;;;;120.00;58.60;;;6.10;63.30;;;;;;5022023;28;20036;-80
2021/12/23 11:54:03;;;;;;;119.88;60.72;;;6.00;62.40;;;;;;5044855;28;20120;-79
2021/12/23 11:56:31;;;;;;;111.05;57.42;;;6.20;63.30;;;;;;5055956;28;20275;-80
2021/12/23 11:59:00;;;;;;;113.95;58.95;;;6.30;62.80;;;;;;5049456;28;20036;-79
2021/12/23 12:01:39;;;;;;;106.97;57.63;;;7.10;62.80;;;;;;5051997;28;20041;-79
2021/12/23 12:04:08;;;;;;;116.10;60.28;;;6.50;61.80;;;;;;5045987;28;20415;-79
2021/12/23 12:06:43;;;;;;;109.15;58.55;;;6.40;63.00;;;;;;5045978;28;20035;-79
2021/12/23 12:09:22;;;;;;;123.25;63.15;;;6.30;62.90;;;;;;5048679;28;20024;-80
2021/12/23 12:12:00;;;;;;;122.85;62.85;;;6.20;63.00;;;;;;5048047;28;20104;-79
2021/12/23 12:14:36;;;;;;;123.40;64.40;;;6.30;63.00;;;;;;5042992;28;20016;-78
2021/12/23 12:17:41;;;;;;;137.93;65.82;;;6.50;63.90;;;;;;5040170;28;20021;-78
2021/12/23 12:20:43;;;;;;;140.27;72.25;;;6.50;62.60;;;;;;4977819;28;20078;-79
2021/12/23 12:23:19;;;;;;;144.43;73.75;;;6.50;61.60;;;;;;4978290;28;20576;-79
2021/12/23 12:25:54;;;;;;;138.18;70.78;;;6.50;62.50;;;;;;4977630;28;20065;-79
2021/12/23 12:28:24;;;;;;;142.07;73.57;;;6.40;63.30;;;;;;4977929;28;20022;-78
2021/12/23 12:31:08;;;;;;;128.60;68.88;;;6.40;63.40;;;;;;4977755;28;20038;-77
2021/12/23 12:33:45;;;;;;;136.10;72.50;;;6.50;64.10;;;;;;4977126;28;20030;-78
2021/12/23 12:36:16;;;;;;;123.72;66.55;;;6.30;62.40;;;;;;4976979;28;20586;-79
2021/12/23 12:38:45;;;;;;;132.55;68.82;;;6.20;64.00;;;;;;4977076;28;20038;-79
2021/12/23 12:41:13;;;;;;;139.82;70.35;;;6.10;64.40;;;;;;4977605;28;20057;-79
2021/12/23 12:43:44;;;;;;;124.13;66.65;;;6.00;63.90;;;;;;4977662;28;20042;-79
2021/12/23 12:46:13;;;;;;;125.18;64.82;;;5.80;64.80;;;;;;4978014;28;20077;-78
2021/12/23 12:48:58;;;;;;;115.28;62.30;;;5.80;64.90;;;;;;4977459;28;20516;-79
2021/12/23 12:51:33;;;;;;;115.10;62.33;;;5.00;65.70;;;;;;5022243;28;20040;-79
2021/12/23 12:54:04;;;;;;;125.57;66.35;;;5.80;66.50;;;;;;5039836;28;20056;-79
2021/12/23 12:56:43;;;;;;;139.75;75.10;;;5.90;67.40;;;;;;5039436;28;20025;-79
2021/12/23 12:59:11;;;;;;;123.25;65.40;;;5.90;67.10;;;;;;5039353;28;20032;-79
2021/12/23 13:01:42;;;;;;;116.68;62.65;;;6.00;66.50;;;;;;5040675;28;20017;-80
2021/12/23 13:04:25;;;;;;;110.88;62.05;;;6.10;65.90;;;;;;5038673;28;20074;-79
2021/12/23 13:06:55;;;;;;;122.05;64.20;;;6.10;65.30;;;;;;5039338;28;20017;-80
2021/12/23 13:09:35;;;;;;;118.07;65.57;;;6.20;65.50;;;;;;5039699;28;20025;-79
2021/12/23 13:12:03;;;;;;;128.82;67.70;;;6.20;64.80;;;;;;5040186;28;20021;-78
2021/12/23 13:15:08;;;;;;;125.65;65.20;;;6.10;64.30;;;;;;5039935;28;20037;-79
2021/12/23 13:17:47;;;;;;;125.15;64.95;;;6.10;65.00;;;;;;5040071;28;20120;-79
2021/12/23 13:20:15;;;;;;;122.80;65.80;;;6.20;65.40;;;;;;5040632;28;20086;-79
2021/12/23 13:22:43;;;;;;;141.35;76.47;;;6.20;65.80;;;;;;5041416;28;20025;-79
2021/12/23 13:25:09;;;;;;;157.27;79.13;;;6.30;66.60;;;;;;5040503;28;20021;-78
2021/12/23 13:27:40;;;;;;;151.98;82.47;;;6.30;67.40;;;;;;5045500;28;20025;-80
2021/12/23 13:30:10;;;;;;;171.68;85.45;;;6.30;67.30;;;;;;5048426;28;20005;-79
2021/12/23 13:32:38;;;;;;;153.30;83.65;;;6.30;67.00;;;;;;5047836;28;20009;-79
2021/12/23 13:35:15;;;;;;;152.50;81.97;;;6.20;66.70;;;;;;5047684;28;20029;-79
2021/12/23 13:37:43;;;;;;;158.32;84.40;;;6.20;66.60;;;;;;5050126;28;20028;-78
2021/12/23 13:40:11;;;;;;;154.40;81.78;;;6.10;67.00;;;;;;5053318;28;20717;-79
2021/12/23 13:42:41;;;;;;;177.48;89.70;;;6.00;67.40;;;;;;5052023;28;20108;-79
2021/12/23 13:45:07;;;;;;;183.15;93.07;;;5.90;68.70;;;;;;5051794;28;20056;-78
2021/12/23 13:47:34;;;;;;;214.27;106.75;;;5.90;69.20;;;;;;5046522;28;20067;-78
2021/12/23 13:50:01;;;;;;;240.85;116.22;;;5.80;69.50;;;;;;5045526;28;20025;-79
2021/12/23 13:52:35;;;;;;;252.25;123.20;;;5.70;70.60;;;;;;5051441;28;20021;-78
2021/12/23 13:55:11;;;;;;;269.85;128.15;;;5.60;71.40;;;;;;5050086;28;20052;-79
2021/12/23 13:57:49;;;;;;;222.10;111.20;;;5.70;76.40;;;;;;5045528;28;20052;-79